Pagrindinis puslapis
METAR-TAF:

METAR-TAF

Oro uostai :

Nakhon Ratchasima, Tailandas

platuma: 14-56-58N, ilguma: 102-18-45E, Aukštis: 233 m

Dabartinis oras

Ataskaita buvo paskelbta 10 valandos ir 45 minutes, ne 11:00 UTC
Vėjas 3 kt nuo kintamojo kryptimis
Temperatūra 25°C
Drėgmė 100%
Slėgis 1011 hPa
Matomumas: 9000 m
Mažai debesys ne aukštis 2000 ft, Liūtiniai kamuoliniai debesys.
Išsisklaidę debesys ne aukštis 3000 ft
Su prošvaistėmis ne aukštis 10000 ft
perkūnija, lietus

METAR: VTUQ 121100Z VRB03KT 9000 -TSRA FEW020CB SCT030 BKN100 25/25 Q1011 NOSIG

Laikas: 04:45 (21:45 UTC)

Prognozė

Ataskaita buvo paskelbta 4 valandos ir 45 minutes, ne 17:00 UTC
Prognozė galioja nuo 12 metu 18 UTC su 13 metu 18 UTC
Vėjas 5 kt iš Vakarų/Pietvakarių
Matomumas: 9000 m
Mažai debesys ne aukštis 3000 ft

TAF: VTUQ 121700Z 1218/1318 24005KT 9000 FEW030

Orai ataskaitas ir orų prognozės (METAR, TAF).

turimą stotys yra geltonos ir raudonos taškus žemėlapyje.

Perkelti pele per norėdami pamatyti stoties vardą.

Tada spustelėkite, norėdami matyti oro stebėjimo ir prognozės.

Norėdami pakeisti žemėlapį: spustelėkite ant žalios mygtukų su juodo kryžiaus žemyn,; žalią mygtuką su brūkšneliu, jei norite nutolinti; arba žalių rodyklių gretimoms žemėlapius.


METAR-TAF: